createdAt,value
2023-01-31T00:01:14.002Z,0.71
2023-01-31T00:03:41.081Z,0.73
2023-01-31T00:06:24.477Z,0.73
2023-01-31T00:08:51.509Z,0.81
2023-01-31T00:11:18.900Z,0.87
2023-01-31T00:13:45.932Z,0.92
2023-01-31T00:16:13.324Z,0.90
2023-01-31T00:18:40.112Z,0.91
2023-01-31T00:21:11.657Z,0.93
2023-01-31T00:23:39.052Z,0.97
2023-01-31T00:26:13.413Z,1.11
2023-01-31T00:28:40.165Z,1.18
2023-01-31T00:31:07.297Z,1.05
2023-01-31T00:33:35.074Z,1.08
2023-01-31T00:36:09.714Z,1.12
2023-01-31T00:38:36.896Z,1.03
2023-01-31T00:41:04.417Z,0.95
2023-01-31T00:43:31.314Z,0.95
2023-01-31T00:45:58.010Z,0.91
2023-01-31T00:48:24.777Z,0.87
2023-01-31T00:50:51.312Z,0.81
2023-01-31T00:53:23.309Z,0.82
2023-01-31T00:55:53.322Z,0.80
2023-01-31T00:58:19.838Z,0.83
2023-01-31T01:00:46.992Z,0.76
2023-01-31T01:03:13.791Z,0.86
2023-01-31T01:05:40.407Z,0.83
2023-01-31T01:08:07.063Z,0.75
2023-01-31T01:10:34.172Z,0.74
2023-01-31T01:13:01.200Z,0.65
2023-01-31T01:15:28.027Z,0.61
2023-01-31T01:17:55.541Z,0.69
2023-01-31T01:20:22.073Z,0.62
2023-01-31T01:22:48.600Z,0.61
2023-01-31T01:25:15.132Z,0.55
2023-01-31T01:27:41.693Z,0.48
2023-01-31T01:30:08.629Z,0.57
2023-01-31T01:32:35.119Z,0.54
2023-01-31T01:35:01.658Z,0.56
2023-01-31T01:37:28.225Z,0.49
2023-01-31T01:39:54.741Z,0.45
2023-01-31T01:42:22.797Z,0.46
2023-01-31T01:44:49.455Z,0.41
2023-01-31T01:47:22.170Z,0.42
2023-01-31T01:49:51.280Z,0.39
2023-01-31T01:52:18.409Z,0.32
2023-01-31T01:58:20.551Z,0.31
2023-01-31T02:00:47.327Z,0.29
2023-01-31T02:03:14.426Z,0.30
2023-01-31T02:05:43.882Z,0.25
2023-01-31T02:08:10.841Z,0.24
2023-01-31T02:10:42.132Z,0.22
2023-01-31T02:13:08.875Z,0.23
2023-01-31T02:15:35.954Z,0.24
2023-01-31T02:18:02.609Z,0.24
2023-01-31T02:20:49.159Z,0.25
2023-01-31T02:23:21.619Z,0.32
2023-01-31T02:26:07.085Z,0.24
2023-01-31T02:28:56.432Z,0.26
2023-01-31T02:31:38.063Z,0.23
2023-01-31T02:34:10.858Z,0.23
2023-01-31T02:37:03.445Z,0.26
2023-01-31T02:39:42.002Z,0.15
2023-01-31T02:42:11.322Z,0.09
2023-01-31T02:44:59.489Z,0.07
2023-01-31T02:47:26.013Z,0.16
2023-01-31T02:50:18.798Z,0.11
2023-01-31T02:53:05.763Z,0.03
2023-01-31T02:55:59.873Z,-0.01
2023-01-31T02:58:28.333Z,0.15
2023-01-31T03:00:58.469Z,0.14
2023-01-31T03:03:27.277Z,0.06
2023-01-31T03:06:33.672Z,0.07
2023-01-31T03:09:26.261Z,0.00
2023-01-31T03:11:58.802Z,-0.07
2023-01-31T03:14:45.563Z,-0.07
2023-01-31T03:17:32.849Z,-0.05
2023-01-31T03:20:04.068Z,-0.07
2023-01-31T03:22:35.924Z,-0.01
2023-01-31T03:25:05.587Z,0.03
2023-01-31T03:27:34.149Z,-0.05
2023-01-31T03:30:08.794Z,-0.10
2023-01-31T03:32:39.869Z,-0.12
2023-01-31T03:35:06.834Z,-0.10
2023-01-31T03:37:41.552Z,-0.06
2023-01-31T03:40:13.301Z,-0.09
2023-01-31T03:42:45.818Z,-0.18
2023-01-31T03:45:23.510Z,-0.10
2023-01-31T03:47:51.164Z,-0.12
2023-01-31T03:50:26.762Z,-0.07
2023-01-31T03:53:11.401Z,-0.19
2023-01-31T03:55:42.940Z,-0.14
2023-01-31T03:58:10.347Z,-0.18
2023-01-31T04:00:39.081Z,-0.19
2023-01-31T04:03:16.590Z,-0.18
2023-01-31T04:05:43.419Z,-0.23
2023-01-31T04:08:09.951Z,-0.26
2023-01-31T04:10:37.027Z,0.00
2023-01-31T04:13:03.544Z,-0.07
2023-01-31T04:15:30.160Z,-0.15
2023-01-31T04:17:56.744Z,-0.22
2023-01-31T04:20:23.300Z,-0.21
2023-01-31T04:22:49.809Z,-0.24
2023-01-31T04:25:16.378Z,-0.28
2023-01-31T04:27:42.996Z,-0.25
2023-01-31T04:30:09.858Z,-0.25
2023-01-31T04:32:36.686Z,-0.27
2023-01-31T04:35:03.302Z,-0.30
2023-01-31T04:37:29.908Z,-0.33
2023-01-31T04:39:56.436Z,-0.25
2023-01-31T04:42:22.883Z,-0.39
2023-01-31T04:44:49.449Z,-0.38
2023-01-31T04:47:16.003Z,-0.37
2023-01-31T04:49:44.231Z,-0.41
2023-01-31T04:52:11.205Z,-0.41
2023-01-31T04:54:37.896Z,-0.41
2023-01-31T04:57:04.539Z,-0.40
2023-01-31T04:59:31.122Z,-0.42
2023-01-31T05:01:57.682Z,-0.44
2023-01-31T05:04:25.647Z,-0.43
2023-01-31T05:06:52.673Z,-0.38
2023-01-31T05:09:19.250Z,-0.38
2023-01-31T05:11:45.884Z,-0.32
2023-01-31T05:14:13.925Z,-0.32
2023-01-31T05:16:41.066Z,-0.35
2023-01-31T05:19:07.729Z,-0.33
2023-01-31T05:21:54.242Z,-0.30
2023-01-31T05:24:24.096Z,-0.23
2023-01-31T05:26:52.975Z,-0.15
2023-01-31T05:29:19.738Z,-0.20
2023-01-31T05:31:46.308Z,-0.20
2023-01-31T05:34:15.370Z,-0.17
2023-01-31T05:36:42.917Z,-0.12
2023-01-31T05:39:09.533Z,-0.12
2023-01-31T05:41:36.048Z,-0.17
2023-01-31T05:44:02.775Z,-0.24
2023-01-31T05:46:29.499Z,-0.29
2023-01-31T05:48:56.017Z,-0.19
2023-01-31T05:51:22.586Z,-0.17
2023-01-31T05:53:49.470Z,-0.20
2023-01-31T05:56:16.744Z,-0.27
2023-01-31T05:58:43.342Z,-0.23
2023-01-31T06:01:09.867Z,-0.13
2023-01-31T06:03:36.393Z,-0.20
2023-01-31T06:06:05.235Z,-0.23
2023-01-31T06:08:32.225Z,-0.24
2023-01-31T06:11:01.263Z,-0.31
2023-01-31T06:13:27.796Z,-0.31
2023-01-31T06:15:54.313Z,-0.34
2023-01-31T06:18:20.883Z,-0.34
2023-01-31T06:20:47.422Z,-0.30
2023-01-31T06:23:13.944Z,-0.31
2023-01-31T06:25:40.454Z,-0.38
2023-01-31T06:28:06.986Z,-0.46
2023-01-31T06:30:33.978Z,-0.43
2023-01-31T06:33:00.582Z,-0.25
2023-01-31T06:35:27.121Z,-0.33
2023-01-31T06:37:55.100Z,-0.38
2023-01-31T06:40:21.682Z,-0.28
2023-01-31T06:42:48.268Z,-0.45
2023-01-31T06:45:14.798Z,-0.51
2023-01-31T06:47:41.414Z,-0.60
2023-01-31T06:50:08.175Z,-0.58
2023-01-31T06:52:34.680Z,-0.61
2023-01-31T06:55:01.214Z,-0.13
2023-01-31T06:57:27.724Z,0.03
2023-01-31T06:59:54.251Z,0.07
2023-01-31T07:02:20.764Z,0.37
2023-01-31T07:04:47.632Z,0.32
2023-01-31T07:07:14.212Z,0.22
2023-01-31T07:09:40.713Z,0.27
2023-01-31T07:12:07.294Z,0.13
2023-01-31T07:14:33.937Z,0.54
2023-01-31T07:17:00.424Z,1.27
2023-01-31T07:19:26.969Z,1.55
2023-01-31T07:21:53.477Z,1.66
2023-01-31T07:24:20.101Z,1.68
2023-01-31T07:26:46.603Z,1.74
2023-01-31T07:29:13.149Z,1.87
2023-01-31T07:31:40.000Z,1.78
2023-01-31T07:34:06.515Z,1.71
2023-01-31T07:36:33.339Z,1.77
2023-01-31T07:39:01.903Z,1.87
2023-01-31T07:41:28.446Z,2.08
2023-01-31T07:43:55.014Z,2.16
2023-01-31T07:46:21.703Z,2.22
2023-01-31T07:48:48.359Z,2.35
2023-01-31T07:51:14.984Z,2.48
2023-01-31T07:53:44.505Z,2.49
2023-01-31T07:56:12.914Z,2.34
2023-01-31T07:58:39.833Z,2.38
2023-01-31T08:01:25.004Z,2.65
2023-01-31T08:03:52.012Z,2.89
2023-01-31T08:06:19.012Z,3.02
2023-01-31T08:08:46.160Z,3.18
2023-01-31T08:11:13.036Z,3.30
2023-01-31T08:13:39.822Z,3.42
2023-01-31T08:16:07.493Z,3.52
2023-01-31T08:18:34.178Z,3.58
2023-01-31T08:21:00.995Z,3.80
2023-01-31T08:23:27.999Z,4.04
2023-01-31T08:26:20.820Z,3.95
2023-01-31T08:28:48.445Z,4.03
2023-01-31T08:31:19.494Z,4.09
2023-01-31T08:33:46.333Z,4.09
2023-01-31T08:36:15.407Z,3.92
2023-01-31T08:38:42.283Z,3.90
2023-01-31T08:41:08.846Z,3.90
2023-01-31T08:43:53.692Z,3.97
2023-01-31T08:46:23.021Z,4.09
2023-01-31T08:48:49.576Z,4.07
2023-01-31T08:51:16.131Z,4.03
2023-01-31T08:53:46.322Z,4.15
2023-01-31T08:56:13.459Z,4.20
2023-01-31T08:58:41.900Z,4.17
2023-01-31T09:01:11.870Z,4.05
2023-01-31T09:03:38.567Z,4.03
2023-01-31T09:06:06.833Z,4.20
2023-01-31T09:08:33.797Z,4.33
2023-01-31T09:11:03.224Z,4.40
2023-01-31T09:13:30.323Z,4.58
2023-01-31T09:16:01.011Z,4.58
2023-01-31T09:18:27.570Z,4.68
2023-01-31T09:20:54.209Z,4.75
2023-01-31T09:23:20.798Z,4.60
2023-01-31T09:25:54.907Z,4.64
2023-01-31T09:28:22.208Z,4.57
2023-01-31T09:30:49.164Z,4.76
2023-01-31T09:33:15.889Z,4.77
2023-01-31T09:35:42.749Z,4.87
2023-01-31T09:38:09.310Z,4.88
2023-01-31T09:40:38.054Z,4.62
2023-01-31T09:43:05.203Z,4.88
2023-01-31T09:45:37.112Z,4.99
2023-01-31T09:48:05.608Z,4.91
2023-01-31T09:50:37.971Z,5.13
2023-01-31T09:53:04.671Z,5.04
2023-01-31T09:55:31.144Z,5.11
2023-01-31T09:58:04.580Z,5.27
2023-01-31T10:00:31.612Z,5.13
2023-01-31T10:03:18.580Z,5.23
2023-01-31T10:06:03.257Z,5.40
2023-01-31T10:08:40.007Z,5.44
2023-01-31T10:11:12.533Z,5.40
2023-01-31T10:13:43.688Z,5.46
2023-01-31T10:16:28.107Z,5.41
2023-01-31T10:18:58.044Z,5.47
2023-01-31T10:21:32.778Z,5.49
2023-01-31T10:24:17.838Z,5.45
2023-01-31T10:26:46.461Z,5.41
2023-01-31T10:29:21.204Z,5.52
2023-01-31T10:32:13.878Z,5.52
2023-01-31T10:34:56.265Z,5.42
2023-01-31T10:37:42.163Z,5.34
2023-01-31T10:40:15.364Z,5.23
2023-01-31T10:42:44.267Z,5.38
2023-01-31T10:45:31.075Z,5.27
2023-01-31T10:48:05.106Z,5.19
2023-01-31T10:50:34.191Z,5.08
2023-01-31T10:53:20.937Z,5.26
2023-01-31T10:55:47.431Z,5.30
2023-01-31T10:58:14.955Z,5.18
2023-01-31T11:00:41.580Z,5.16
2023-01-31T11:03:10.532Z,5.22
2023-01-31T11:05:40.000Z,5.28
2023-01-31T11:08:18.097Z,5.35
2023-01-31T11:10:52.362Z,5.31
2023-01-31T11:13:19.618Z,5.33
2023-01-31T11:15:48.376Z,5.05
2023-01-31T11:18:17.533Z,5.46
2023-01-31T11:20:47.889Z,5.33
2023-01-31T11:23:17.042Z,5.32
2023-01-31T11:25:50.960Z,5.34
2023-01-31T11:28:37.803Z,5.23
2023-01-31T11:31:05.622Z,5.32
2023-01-31T11:33:42.120Z,5.34
2023-01-31T11:36:10.093Z,5.34
2023-01-31T11:38:36.680Z,5.28
2023-01-31T11:41:23.159Z,5.32
2023-01-31T11:43:49.695Z,5.21
2023-01-31T11:46:16.646Z,5.15
2023-01-31T11:48:44.353Z,5.15
2023-01-31T11:51:20.860Z,5.14
2023-01-31T11:53:49.532Z,5.28
2023-01-31T11:56:27.734Z,5.10
2023-01-31T11:58:56.272Z,5.11
2023-01-31T12:01:24.680Z,5.28
2023-01-31T12:04:02.719Z,5.38
2023-01-31T12:06:34.779Z,5.42
2023-01-31T12:09:02.952Z,5.10
2023-01-31T12:11:31.353Z,5.14
2023-01-31T12:14:13.034Z,5.03
2023-01-31T12:16:39.758Z,5.02
2023-01-31T12:19:06.381Z,4.95
2023-01-31T12:21:52.339Z,4.99
2023-01-31T12:24:21.612Z,4.86
2023-01-31T12:27:02.135Z,4.94
2023-01-31T12:29:37.615Z,4.66
2023-01-31T12:32:22.792Z,4.40
2023-01-31T12:35:05.097Z,4.28
2023-01-31T12:37:33.645Z,4.20
2023-01-31T12:40:22.829Z,4.18
2023-01-31T12:42:55.254Z,4.08
2023-01-31T12:45:24.656Z,4.01
2023-01-31T12:47:54.003Z,4.07
2023-01-31T12:50:37.415Z,4.03
2023-01-31T12:53:25.233Z,4.00
2023-01-31T12:56:17.158Z,4.01
2023-01-31T12:58:49.630Z,3.90
2023-01-31T13:01:19.333Z,3.83
2023-01-31T13:03:58.271Z,3.78
2023-01-31T13:06:28.104Z,3.79
2023-01-31T13:09:08.233Z,3.82
2023-01-31T13:11:41.092Z,3.74
2023-01-31T13:14:12.801Z,3.83
2023-01-31T13:16:42.137Z,3.97
2023-01-31T13:19:18.654Z,3.71
2023-01-31T13:21:47.329Z,3.66
2023-01-31T13:24:18.088Z,3.57
2023-01-31T13:26:47.473Z,3.63
2023-01-31T13:29:36.169Z,3.53
2023-01-31T13:32:08.766Z,3.67
2023-01-31T13:34:39.933Z,3.60
2023-01-31T13:37:10.379Z,3.45
2023-01-31T13:39:41.700Z,3.71
2023-01-31T13:42:11.262Z,3.64
2023-01-31T13:44:37.852Z,3.48
2023-01-31T13:47:12.695Z,3.43
2023-01-31T13:50:05.644Z,3.32
2023-01-31T13:52:36.116Z,3.29
2023-01-31T13:55:08.060Z,3.21
2023-01-31T13:57:45.575Z,3.26
2023-01-31T14:00:15.115Z,3.37
2023-01-31T14:02:59.352Z,3.32
2023-01-31T14:05:41.276Z,3.26
2023-01-31T14:08:26.408Z,3.19
2023-01-31T14:10:56.849Z,3.35
2023-01-31T14:13:27.040Z,3.35
2023-01-31T14:15:54.665Z,3.33
2023-01-31T14:18:37.558Z,3.27
2023-01-31T14:21:22.872Z,3.22
2023-01-31T14:23:49.479Z,3.35
2023-01-31T14:26:36.434Z,3.29
2023-01-31T14:29:10.511Z,3.19
2023-01-31T14:31:37.148Z,3.17
2023-01-31T14:34:03.816Z,3.15
2023-01-31T14:36:43.957Z,3.07
2023-01-31T14:39:22.786Z,3.09
2023-01-31T14:41:55.378Z,3.05
2023-01-31T14:44:36.778Z,3.11
2023-01-31T14:47:12.440Z,3.19
2023-01-31T14:49:44.955Z,3.23
2023-01-31T14:52:34.086Z,3.15
2023-01-31T14:55:03.676Z,3.13
2023-01-31T14:57:47.780Z,3.12
2023-01-31T15:00:14.278Z,2.97
2023-01-31T15:03:10.357Z,2.88
2023-01-31T15:05:37.621Z,2.70
2023-01-31T15:08:16.138Z,2.63
2023-01-31T15:11:04.647Z,2.47
2023-01-31T15:13:33.991Z,2.44
2023-01-31T15:16:01.085Z,2.30
2023-01-31T15:18:29.129Z,2.22
2023-01-31T15:20:57.891Z,2.24
2023-01-31T15:23:29.890Z,2.37
2023-01-31T15:25:58.448Z,2.39
2023-01-31T15:28:30.194Z,2.45
2023-01-31T15:31:00.143Z,2.51
2023-01-31T15:33:34.916Z,2.58
2023-01-31T15:36:20.378Z,2.85
2023-01-31T15:38:46.887Z,2.82
2023-01-31T15:41:32.784Z,2.63
2023-01-31T15:44:10.837Z,2.57
2023-01-31T15:46:37.381Z,2.39
2023-01-31T15:49:36.614Z,2.26
2023-01-31T15:52:07.970Z,2.23
2023-01-31T15:54:35.224Z,2.18
2023-01-31T15:57:02.477Z,2.14
2023-01-31T15:59:31.129Z,1.94
2023-01-31T16:02:00.053Z,1.82
2023-01-31T16:04:27.731Z,1.90
2023-01-31T16:06:54.568Z,1.76
2023-01-31T16:09:29.773Z,1.76
2023-01-31T16:11:57.960Z,1.83
2023-01-31T16:14:25.299Z,1.70
2023-01-31T16:16:53.288Z,1.60
2023-01-31T16:19:25.716Z,1.53
2023-01-31T16:21:52.752Z,1.48
2023-01-31T16:24:20.495Z,1.77
2023-01-31T16:26:59.256Z,1.62
2023-01-31T16:29:31.991Z,1.51
2023-01-31T16:31:58.598Z,1.40
2023-01-31T16:34:27.610Z,1.43
2023-01-31T16:37:12.841Z,1.34
2023-01-31T16:39:46.949Z,1.30
2023-01-31T16:42:16.314Z,1.24
2023-01-31T16:44:44.556Z,1.15
2023-01-31T16:47:29.837Z,1.41
2023-01-31T16:50:14.849Z,1.51
2023-01-31T16:52:42.393Z,1.44
2023-01-31T16:55:22.620Z,1.42
2023-01-31T16:57:49.466Z,1.54
2023-01-31T17:00:22.447Z,1.83
2023-01-31T17:02:49.361Z,1.79
2023-01-31T17:05:18.932Z,1.71
2023-01-31T17:07:46.414Z,1.52
2023-01-31T17:10:19.269Z,1.42
2023-01-31T17:12:46.017Z,1.30
2023-01-31T17:15:14.584Z,1.18
2023-01-31T17:17:41.213Z,1.10
2023-01-31T17:20:08.207Z,1.00
2023-01-31T17:22:34.807Z,1.02
2023-01-31T17:25:01.380Z,0.97
2023-01-31T17:27:27.958Z,0.88
2023-01-31T17:29:54.576Z,0.91
2023-01-31T17:32:21.762Z,0.90
2023-01-31T17:34:49.047Z,0.83
2023-01-31T17:37:20.706Z,0.79
2023-01-31T17:39:50.155Z,0.67
2023-01-31T17:42:18.411Z,0.61
2023-01-31T17:44:45.040Z,0.52
2023-01-31T17:47:11.703Z,0.48
2023-01-31T17:49:38.431Z,0.38
2023-01-31T17:52:05.507Z,0.34
2023-01-31T17:54:32.101Z,0.19
2023-01-31T17:56:58.664Z,0.11
2023-01-31T17:59:27.245Z,0.19
2023-01-31T18:01:54.719Z,0.13
2023-01-31T18:04:21.564Z,0.12
2023-01-31T18:06:48.246Z,0.10
2023-01-31T18:09:17.092Z,0.05
2023-01-31T18:11:44.586Z,0.03
2023-01-31T18:14:12.296Z,-0.01
2023-01-31T18:16:38.959Z,-0.09
2023-01-31T18:19:05.540Z,-0.16
2023-01-31T18:21:32.208Z,-0.26
2023-01-31T18:24:00.162Z,-0.19
2023-01-31T18:26:26.822Z,-0.28
2023-01-31T18:28:55.526Z,-0.16
2023-01-31T18:31:22.197Z,-0.24
2023-01-31T18:33:49.137Z,-0.32
2023-01-31T18:36:16.838Z,-0.41
2023-01-31T18:38:45.964Z,-0.49
2023-01-31T18:41:14.717Z,-0.58
2023-01-31T18:43:42.011Z,-0.42
2023-01-31T18:46:10.345Z,-0.36
2023-01-31T18:48:37.638Z,-0.34
2023-01-31T18:51:07.715Z,-0.43
2023-01-31T18:53:35.232Z,-0.39
2023-01-31T18:56:05.506Z,-0.27
2023-01-31T18:58:33.092Z,-0.55
2023-01-31T19:01:06.952Z,-0.69
2023-01-31T19:03:33.838Z,-0.71
2023-01-31T19:06:04.599Z,-0.81
2023-01-31T19:08:31.165Z,-0.85
2023-01-31T19:11:02.399Z,-0.89
2023-01-31T19:13:29.449Z,-0.97
2023-01-31T19:15:59.791Z,-0.97
2023-01-31T19:18:26.365Z,-0.98
2023-01-31T19:20:52.846Z,-0.89
2023-01-31T19:23:19.488Z,-0.97
2023-01-31T19:25:46.007Z,-1.01
2023-01-31T19:28:12.538Z,-1.10
2023-01-31T19:30:39.553Z,-1.08
2023-01-31T19:33:06.736Z,-1.23
2023-01-31T19:35:33.670Z,-1.29
2023-01-31T19:38:00.194Z,-1.28
2023-01-31T19:40:26.719Z,-1.36
2023-01-31T19:42:53.456Z,-0.93
2023-01-31T19:45:22.604Z,-0.85
2023-01-31T19:47:49.660Z,-0.99
2023-01-31T19:50:16.384Z,-1.07
2023-01-31T19:52:42.890Z,-1.11
2023-01-31T19:55:09.456Z,-1.18
2023-01-31T19:57:36.002Z,-1.34
2023-01-31T20:00:02.715Z,-1.26
2023-01-31T20:02:29.385Z,-1.52
2023-01-31T20:04:57.810Z,-1.48
2023-01-31T20:07:24.535Z,-1.50
2023-01-31T20:09:51.034Z,-1.51
2023-01-31T20:12:17.597Z,-1.61
2023-01-31T20:14:44.127Z,-1.65
2023-01-31T20:17:10.616Z,-1.24
2023-01-31T20:19:37.158Z,-1.37
2023-01-31T20:22:03.622Z,-1.56
2023-01-31T20:24:30.263Z,-1.50
2023-01-31T20:26:57.417Z,-1.62
2023-01-31T20:29:25.031Z,-1.66
2023-01-31T20:31:51.759Z,-1.56
2023-01-31T20:34:18.324Z,-1.61
2023-01-31T20:36:44.833Z,-1.61
2023-01-31T20:39:12.345Z,-1.74
2023-01-31T20:41:38.825Z,-1.78
2023-01-31T20:44:05.411Z,-1.61
2023-01-31T20:46:31.900Z,-1.49
2023-01-31T20:48:58.439Z,-1.61
2023-01-31T20:51:24.984Z,-1.63
2023-01-31T20:53:51.714Z,-1.33
2023-01-31T20:56:18.251Z,-1.08
2023-01-31T20:58:44.862Z,-1.25
2023-01-31T21:01:11.799Z,-1.50
2023-01-31T21:03:38.364Z,-1.49
2023-01-31T21:06:05.412Z,-1.54
2023-01-31T21:08:32.338Z,-1.63
2023-01-31T21:10:59.308Z,-1.63
2023-01-31T21:13:28.871Z,-1.59
2023-01-31T21:15:59.428Z,-1.67
2023-01-31T21:18:26.808Z,-1.67
2023-01-31T21:20:53.315Z,-1.74
2023-01-31T21:23:19.860Z,-1.83
2023-01-31T21:25:46.452Z,-1.89
2023-01-31T21:28:13.043Z,-1.95
2023-01-31T21:30:39.688Z,-1.94
2023-01-31T21:33:06.269Z,-1.65
2023-01-31T21:35:32.824Z,-1.75
2023-01-31T21:37:59.300Z,-1.81
2023-01-31T21:40:26.068Z,-1.86
2023-01-31T21:42:53.385Z,-1.78
2023-01-31T21:45:39.737Z,-1.84
2023-01-31T21:48:26.276Z,-1.60
2023-01-31T21:50:52.814Z,-1.72
2023-01-31T21:53:19.349Z,-1.75
2023-01-31T21:55:45.846Z,-1.79
2023-01-31T21:58:12.396Z,-1.55
2023-01-31T22:00:38.999Z,-1.67
2023-01-31T22:03:05.566Z,-1.63
2023-01-31T22:05:32.218Z,-1.71
2023-01-31T22:07:59.020Z,-1.62
2023-01-31T22:10:25.509Z,-1.67
2023-01-31T22:12:51.983Z,-1.68
2023-01-31T22:15:18.567Z,-1.73
2023-01-31T22:17:45.045Z,-1.78
2023-01-31T22:20:12.206Z,-1.64
2023-01-31T22:22:38.685Z,-1.32
2023-01-31T22:25:05.435Z,-1.51
2023-01-31T22:27:31.940Z,-1.62
2023-01-31T22:30:06.593Z,-1.77
2023-01-31T22:32:40.628Z,-1.86
2023-01-31T22:35:07.327Z,-1.98
2023-01-31T22:37:33.805Z,-1.79
2023-01-31T22:40:00.391Z,-1.92
2023-01-31T22:42:26.876Z,-1.70
2023-01-31T22:44:53.486Z,-1.89
2023-01-31T22:47:19.997Z,-1.90
2023-01-31T22:49:46.543Z,-2.01
2023-01-31T22:52:13.097Z,-2.09
2023-01-31T22:54:39.588Z,-1.97
2023-01-31T22:57:06.105Z,-1.97
2023-01-31T22:59:32.669Z,-2.03
2023-01-31T23:01:59.168Z,-1.76
2023-01-31T23:04:25.720Z,-1.84
2023-01-31T23:06:52.291Z,-1.90
2023-01-31T23:09:18.799Z,-1.48
2023-01-31T23:11:45.327Z,-1.67
2023-01-31T23:14:11.812Z,-1.75
2023-01-31T23:16:56.643Z,-1.87
2023-01-31T23:19:23.186Z,-1.43
2023-01-31T23:21:49.726Z,-1.72
2023-01-31T23:24:16.528Z,-1.73
2023-01-31T23:26:43.291Z,-1.46
2023-01-31T23:29:09.916Z,-1.36
2023-01-31T23:31:36.587Z,-1.60
2023-01-31T23:34:05.990Z,-1.50
2023-01-31T23:36:32.564Z,-1.72
2023-01-31T23:38:59.078Z,-1.82
2023-01-31T23:41:25.611Z,-1.50
2023-01-31T23:43:52.141Z,-1.34
2023-01-31T23:46:18.760Z,-1.45
2023-01-31T23:48:45.373Z,-1.47
2023-01-31T23:51:11.853Z,-1.42
2023-01-31T23:53:38.336Z,-1.57
2023-01-31T23:56:04.979Z,-1.41
2023-01-31T23:58:31.481Z,-1.52
